^^
Station Historical Data
Daily Summary for July 14, 2017 Units:  Both    English   Metric
« Previous Day
Next Day »
Daily Weekly Monthly Yearly Custom
  High: Low: Average:
Temperature: 75.4 °F /  24.1 °C 45.3 °F /  7.4 °C 60 °F /  15.6 °C
Dew Point: 36.3 °F /  2.4 °C 32.2 °F /  0.1 °C 33.8 °F /  1 °C
Humidity: 61% 22% 40%
Wind Speed: 10.1mph /  16.3km/h - 0.9mph /  1.4km/h
Wind Gust: 16.0mph /  25.7km/h - -
Wind- - West
Pressure: 30.27 in /  1024.9 hPa 30.13 in /  1020.2 hPa -
Precipitation: 0.00 in /  0 mm    
Historical Graphs
 
 
Tabular Data for July 14, 2017
Time Temperature Dew Point Pressure Wind Wind Speed Wind Gust Humidity Rainfall Rate (Hourly) solar Conditions
00:05 52.3 °F /  11.3 °C 32.7 °F /  0.4 °C 30.23in /  1023.6hPa Calm     47% 0.00in /  0mm 0.0 W/m2
00:12 52.2 °F /  11.2 °C 32.5 °F /  0.3 °C 30.23in /  1023.6hPa Calm     47% 0.00in /  0mm 0.0 W/m2
00:18 52.2 °F /  11.2 °C 32.5 °F /  0.3 °C 30.23in /  1023.6hPa Calm     47% 0.00in /  0mm 0.0 W/m2
00:24 52.2 °F /  11.2 °C 32.5 °F /  0.3 °C 30.23in /  1023.6hPa Calm     47% 0.00in /  0mm 0.0 W/m2
00:30 52.0 °F /  11.1 °C 32.9 °F /  0.5 °C 30.23in /  1023.6hPa Calm   2.0mph /  3.2km/h 48% 0.00in /  0mm 0.0 W/m2
00:36 52.0 °F /  11.1 °C 32.4 °F /  0.2 °C 30.23in /  1023.6hPa Calm   3.0mph /  4.8km/h 47% 0.00in /  0mm 0.0 W/m2
00:42 52.0 °F /  11.1 °C 32.9 °F /  0.5 °C 30.23in /  1023.6hPa Calm     48% 0.00in /  0mm 0.0 W/m2
00:48 51.8 °F /  11 °C 32.7 °F /  0.4 °C 30.23in /  1023.6hPa Calm   3.0mph /  4.8km/h 48% 0.00in /  0mm 0.0 W/m2
00:55 51.6 °F /  10.9 °C 32.5 °F /  0.3 °C 30.23in /  1023.6hPa Calm   1.0mph /  1.6km/h 48% 0.00in /  0mm 0.0 W/m2
01:01 51.8 °F /  11 °C 32.7 °F /  0.4 °C 30.23in /  1023.6hPa Calm     48% 0.00in /  0mm 0.0 W/m2
01:07 51.4 °F /  10.8 °C 32.4 °F /  0.2 °C 30.24in /  1023.9hPa Calm     48% 0.00in /  0mm 0.0 W/m2
01:13 51.1 °F /  10.6 °C 32.5 °F /  0.3 °C 30.23in /  1023.6hPa Calm     49% 0.00in /  0mm 0.0 W/m2
01:19 50.5 °F /  10.3 °C 32.5 °F /  0.3 °C 30.23in /  1023.6hPa Calm   2.0mph /  3.2km/h 50% 0.00in /  0mm 0.0 W/m2
01:25 50.4 °F /  10.2 °C 32.4 °F /  0.2 °C 30.23in /  1023.6hPa Calm     50% 0.00in /  0mm 0.0 W/m2
01:32 50.2 °F /  10.1 °C 32.2 °F /  0.1 °C 30.23in /  1023.6hPa Calm   4.0mph /  6.4km/h 50% 0.00in /  0mm 0.0 W/m2
01:38 50.4 °F /  10.2 °C 32.9 °F /  0.5 °C 30.23in /  1023.6hPa Calm   3.0mph /  4.8km/h 51% 0.00in /  0mm 0.0 W/m2
01:44 50.5 °F /  10.3 °C 32.5 °F /  0.3 °C 30.23in /  1023.6hPa ENE 0.9mph /  1.4km/h 5.0mph /  8km/h 50% 0.00in /  0mm 0.0 W/m2
01:50 51.1 °F /  10.6 °C 33.1 °F /  0.6 °C 30.23in /  1023.6hPa Calm   4.0mph /  6.4km/h 50% 0.00in /  0mm 0.0 W/m2
01:56 51.3 °F /  10.7 °C 32.7 °F /  0.4 °C 30.24in /  1023.9hPa Calm   2.0mph /  3.2km/h 49% 0.00in /  0mm 0.0 W/m2
02:02 51.3 °F /  10.7 °C 32.7 °F /  0.4 °C 30.24in /  1023.9hPa East 2.9mph /  4.7km/h 3.0mph /  4.8km/h 49% 0.00in /  0mm 0.0 W/m2
02:08 51.1 °F /  10.6 °C 32.5 °F /  0.3 °C 30.24in /  1023.9hPa Calm   1.0mph /  1.6km/h 49% 0.00in /  0mm 0.0 W/m2
02:14 51.1 °F /  10.6 °C 33.1 °F /  0.6 °C 30.24in /  1023.9hPa Calm   1.0mph /  1.6km/h 50% 0.00in /  0mm 0.0 W/m2
02:20 50.7 °F /  10.4 °C 32.7 °F /  0.4 °C 30.24in /  1023.9hPa Calm   1.0mph /  1.6km/h 50% 0.00in /  0mm 0.0 W/m2
02:27 50.7 °F /  10.4 °C 32.7 °F /  0.4 °C 30.24in /  1023.9hPa Calm     50% 0.00in /  0mm 0.0 W/m2
02:33 50.5 °F /  10.3 °C 33.1 °F /  0.6 °C 30.24in /  1023.9hPa Calm     51% 0.00in /  0mm 0.0 W/m2
02:39 50.4 °F /  10.2 °C 32.9 °F /  0.5 °C 30.24in /  1023.9hPa Calm   1.0mph /  1.6km/h 51% 0.00in /  0mm 0.0 W/m2
02:45 50.2 °F /  10.1 °C 32.7 °F /  0.4 °C 30.24in /  1023.9hPa Calm   1.0mph /  1.6km/h 51% 0.00in /  0mm 0.0 W/m2
02:51 50.0 °F /  10 °C 32.5 °F /  0.3 °C 30.24in /  1023.9hPa Calm     51% 0.00in /  0mm 0.0 W/m2
02:57 49.8 °F /  9.9 °C 32.9 °F /  0.5 °C 30.24in /  1023.9hPa Calm     52% 0.00in /  0mm 0.0 W/m2
03:03 49.6 °F /  9.8 °C 32.7 °F /  0.4 °C 30.24in /  1023.9hPa Calm   1.0mph /  1.6km/h 52% 0.00in /  0mm 0.0 W/m2
03:09 49.5 °F /  9.7 °C 32.5 °F /  0.3 °C 30.24in /  1023.9hPa Calm   1.0mph /  1.6km/h 52% 0.00in /  0mm 0.0 W/m2
03:15 49.3 °F /  9.6 °C 32.9 °F /  0.5 °C 30.24in /  1023.9hPa Calm   1.0mph /  1.6km/h 53% 0.00in /  0mm 0.0 W/m2
03:21 49.3 °F /  9.6 °C 32.9 °F /  0.5 °C 30.24in /  1023.9hPa Calm   1.0mph /  1.6km/h 53% 0.00in /  0mm 0.0 W/m2
03:27 49.1 °F /  9.5 °C 32.7 °F /  0.4 °C 30.24in /  1023.9hPa Calm     53% 0.00in /  0mm 0.0 W/m2
03:34 49.3 °F /  9.6 °C 32.9 °F /  0.5 °C 30.24in /  1023.9hPa Calm   1.0mph /  1.6km/h 53% 0.00in /  0mm 0.0 W/m2
03:40 49.3 °F /  9.6 °C 32.9 °F /  0.5 °C 30.24in /  1023.9hPa Calm   2.0mph /  3.2km/h 53% 0.00in /  0mm 0.0 W/m2
03:46 49.6 °F /  9.8 °C 32.7 °F /  0.4 °C 30.24in /  1023.9hPa Calm   4.0mph /  6.4km/h 52% 0.00in /  0mm 0.0 W/m2
03:52 50.5 °F /  10.3 °C 33.1 °F /  0.6 °C 30.24in /  1023.9hPa Calm   4.0mph /  6.4km/h 51% 0.00in /  0mm 0.0 W/m2
03:58 51.1 °F /  10.6 °C 33.1 °F /  0.6 °C 30.24in /  1023.9hPa NNE 2.0mph /  3.2km/h 3.0mph /  4.8km/h 50% 0.00in /  0mm 0.0 W/m2
04:04 51.6 °F /  10.9 °C 33.1 °F /  0.6 °C 30.24in /  1023.9hPa Calm     49% 0.00in /  0mm 0.0 W/m2
04:10 51.8 °F /  11 °C 33.3 °F /  0.7 °C 30.24in /  1023.9hPa Calm     49% 0.00in /  0mm 0.0 W/m2
04:16 51.6 °F /  10.9 °C 33.1 °F /  0.6 °C 30.24in /  1023.9hPa Calm     49% 0.00in /  0mm 0.0 W/m2
04:22 51.3 °F /  10.7 °C 33.3 °F /  0.7 °C 30.23in /  1023.6hPa Calm     50% 0.00in /  0mm 0.0 W/m2
04:29 51.1 °F /  10.6 °C 33.1 °F /  0.6 °C 30.23in /  1023.6hPa Calm     50% 0.00in /  0mm 0.0 W/m2
04:35 50.7 °F /  10.4 °C 32.7 °F /  0.4 °C 30.23in /  1023.6hPa Calm     50% 0.00in /  0mm 0.0 W/m2
04:41 50.4 °F /  10.2 °C 32.9 °F /  0.5 °C 30.23in /  1023.6hPa Calm     51% 0.00in /  0mm 0.0 W/m2
04:47 50.2 °F /  10.1 °C 33.3 °F /  0.7 °C 30.23in /  1023.6hPa Calm     52% 0.00in /  0mm 0.0 W/m2
04:53 49.8 °F /  9.9 °C 33.4 °F /  0.8 °C 30.24in /  1023.9hPa Calm     53% 0.00in /  0mm 0.0 W/m2
04:59 49.6 °F /  9.8 °C 33.3 °F /  0.7 °C 30.24in /  1023.9hPa Calm     53% 0.00in /  0mm 0.0 W/m2
05:05 49.5 °F /  9.7 °C 33.4 °F /  0.8 °C 30.24in /  1023.9hPa Calm     54% 0.00in /  0mm 0.0 W/m2
05:12 49.1 °F /  9.5 °C 33.3 °F /  0.7 °C 30.24in /  1023.9hPa Calm     54% 0.00in /  0mm 0.0 W/m2
05:18 48.7 °F /  9.3 °C 32.9 °F /  0.5 °C 30.24in /  1023.9hPa Calm     54% 0.00in /  0mm 0.0 W/m2
05:24 48.4 °F /  9.1 °C 32.9 °F /  0.5 °C 30.24in /  1023.9hPa Calm     55% 0.00in /  0mm 0.0 W/m2
05:30 48.2 °F /  9 °C 32.7 °F /  0.4 °C 30.24in /  1023.9hPa Calm     55% 0.00in /  0mm 0.0 W/m2
05:36 47.8 °F /  8.8 °C 32.9 °F /  0.5 °C 30.24in /  1023.9hPa Calm     56% 0.00in /  0mm 0.0 W/m2
05:42 47.5 °F /  8.6 °C 33.1 °F /  0.6 °C 30.24in /  1023.9hPa Calm     57% 0.00in /  0mm 0.0 W/m2
05:48 47.1 °F /  8.4 °C 32.7 °F /  0.4 °C 30.24in /  1023.9hPa Calm     57% 0.00in /  0mm 0.0 W/m2
05:55 46.9 °F /  8.3 °C 32.5 °F /  0.3 °C 30.24in /  1023.9hPa Calm     57% 0.00in /  0mm 0.0 W/m2
06:01 46.8 °F /  8.2 °C 32.7 °F /  0.4 °C 30.24in /  1023.9hPa Calm     58% 0.00in /  0mm 0.0 W/m2
06:07 46.6 °F /  8.1 °C 32.5 °F /  0.3 °C 30.24in /  1023.9hPa Calm     58% 0.00in /  0mm 0.0 W/m2
06:13 46.2 °F /  7.9 °C 32.2 °F /  0.1 °C 30.24in /  1023.9hPa Calm     58% 0.00in /  0mm 0.0 W/m2
06:19 46.2 °F /  7.9 °C 32.7 °F /  0.4 °C 30.24in /  1023.9hPa Calm     59% 0.00in /  0mm 0.0 W/m2
06:25 46.0 °F /  7.8 °C 32.5 °F /  0.3 °C 30.24in /  1023.9hPa Calm     59% 0.00in /  0mm 0.0 W/m2
06:32 45.9 °F /  7.7 °C 32.4 °F /  0.2 °C 30.24in /  1023.9hPa Calm     59% 0.00in /  0mm 0.0 W/m2
06:37 45.7 °F /  7.6 °C 32.5 °F /  0.3 °C 30.24in /  1023.9hPa Calm     60% 0.00in /  0mm 5.0 W/m2
06:44 45.5 °F /  7.5 °C 32.4 °F /  0.2 °C 30.24in /  1023.9hPa Calm     60% 0.00in /  0mm 9.0 W/m2
06:50 45.3 °F /  7.4 °C 32.2 °F /  0.1 °C 30.25in /  1024.3hPa Calm     60% 0.00in /  0mm 12.0 W/m2
06:56 45.3 °F /  7.4 °C 32.2 °F /  0.1 °C 30.25in /  1024.3hPa Calm     60% 0.00in /  0mm 16.0 W/m2
07:01 45.3 °F /  7.4 °C 32.7 °F /  0.4 °C 30.24in /  1023.9hPa Calm     61% 0.00in /  0mm 18.0 W/m2
07:07 45.3 °F /  7.4 °C 32.7 °F /  0.4 °C 30.25in /  1024.3hPa Calm     61% 0.00in /  0mm 19.0 W/m2
07:12 45.5 °F /  7.5 °C 32.9 °F /  0.5 °C 30.25in /  1024.3hPa Calm     61% 0.00in /  0mm 21.0 W/m2
07:18 45.7 °F /  7.6 °C 33.1 °F /  0.6 °C 30.25in /  1024.3hPa Calm     61% 0.00in /  0mm 23.0 W/m2
07:24 45.9 °F /  7.7 °C 33.3 °F /  0.7 °C 30.25in /  1024.3hPa Calm     61% 0.00in /  0mm 25.0 W/m2
07:30 46.2 °F /  7.9 °C 33.1 °F /  0.6 °C 30.25in /  1024.3hPa Calm     60% 0.00in /  0mm 28.0 W/m2
07:36 46.9 °F /  8.3 °C 34.2 °F /  1.2 °C 30.25in /  1024.3hPa Calm     61% 0.00in /  0mm 30.0 W/m2
07:42 47.5 °F /  8.6 °C 34.3 °F /  1.3 °C 30.25in /  1024.3hPa Calm     60% 0.00in /  0mm 32.0 W/m2
07:48 48.4 °F /  9.1 °C 34.7 °F /  1.5 °C 30.25in /  1024.3hPa Calm     59% 0.00in /  0mm 33.0 W/m2
07:55 48.9 °F /  9.4 °C 35.2 °F /  1.8 °C 30.25in /  1024.3hPa Calm     59% 0.00in /  0mm 35.0 W/m2
08:01 49.8 °F /  9.9 °C 34.7 °F /  1.5 °C 30.26in /  1024.6hPa Calm     56% 0.00in /  0mm 37.0 W/m2
08:07 51.4 °F /  10.8 °C 35.8 °F /  2.1 °C 30.26in /  1024.6hPa Calm     55% 0.00in /  0mm 42.0 W/m2
08:13 54.0 °F /  12.2 °C 35.8 °F /  2.1 °C 30.26in /  1024.6hPa Calm     50% 0.00in /  0mm 279.0 W/m2
08:19 55.9 °F /  13.3 °C 34.9 °F /  1.6 °C 30.26in /  1024.6hPa Calm   1.0mph /  1.6km/h 45% 0.00in /  0mm 302.0 W/m2
08:25 57.9 °F /  14.4 °C 34.3 °F /  1.3 °C 30.26in /  1024.6hPa Calm     41% 0.00in /  0mm 322.0 W/m2
08:31 60.1 °F /  15.6 °C 35.1 °F /  1.7 °C 30.26in /  1024.6hPa NNW 0.9mph /  1.4km/h 4.0mph /  6.4km/h 39% 0.00in /  0mm 341.0 W/m2
08:38 61.5 °F /  16.4 °C 35.1 °F /  1.7 °C 30.27in /  1024.9hPa Calm   3.0mph /  4.8km/h 37% 0.00in /  0mm 360.0 W/m2
08:44 63.0 °F /  17.2 °C 34.9 °F /  1.6 °C 30.26in /  1024.6hPa Calm   3.0mph /  4.8km/h 35% 0.00in /  0mm 385.0 W/m2
08:49 63.0 °F /  17.2 °C 34.9 °F /  1.6 °C 30.26in /  1024.6hPa Calm   3.0mph /  4.8km/h 35% 0.00in /  0mm 385.0 W/m2
08:54 64.4 °F /  18 °C 34.7 °F /  1.5 °C 30.26in /  1024.6hPa NNW 0.9mph /  1.4km/h 2.0mph /  3.2km/h 33% 0.00in /  0mm 413.0 W/m2
09:00 64.9 °F /  18.3 °C 35.1 °F /  1.7 °C 30.27in /  1024.9hPa Calm     33% 0.00in /  0mm 427.0 W/m2
09:06 65.5 °F /  18.6 °C 34.9 °F /  1.6 °C 30.27in /  1024.9hPa Calm   3.0mph /  4.8km/h 32% 0.00in /  0mm 445.0 W/m2
09:12 66.0 °F /  18.9 °C 35.2 °F /  1.8 °C 30.27in /  1024.9hPa NNW 0.9mph /  1.4km/h 4.0mph /  6.4km/h 32% 0.00in /  0mm 461.0 W/m2
09:18 66.4 °F /  19.1 °C 34.9 °F /  1.6 °C 30.26in /  1024.6hPa WNW 0.9mph /  1.4km/h 5.0mph /  8km/h 31% 0.00in /  0mm 475.0 W/m2
09:24 66.7 °F /  19.3 °C 35.1 °F /  1.7 °C 30.27in /  1024.9hPa Calm   6.0mph /  9.7km/h 31% 0.00in /  0mm 494.0 W/m2
09:30 67.3 °F /  19.6 °C 35.6 °F /  2 °C 30.27in /  1024.9hPa Calm   4.0mph /  6.4km/h 31% 0.00in /  0mm 506.0 W/m2
09:36 67.6 °F /  19.8 °C 36.0 °F /  2.2 °C 30.27in /  1024.9hPa Calm   4.0mph /  6.4km/h 31% 0.00in /  0mm 520.0 W/m2
09:42 68.0 °F /  20 °C 35.4 °F /  1.9 °C 30.27in /  1024.9hPa NW 6.0mph /  9.7km/h 9.0mph /  14.5km/h 30% 0.00in /  0mm 534.0 W/m2
09:48 68.4 °F /  20.2 °C 35.8 °F /  2.1 °C 30.26in /  1024.6hPa NW 0.9mph /  1.4km/h 4.0mph /  6.4km/h 30% 0.00in /  0mm 547.0 W/m2
09:54 69.1 °F /  20.6 °C 35.4 °F /  1.9 °C 30.26in /  1024.6hPa NNW 4.0mph /  6.4km/h 7.0mph /  11.3km/h 29% 0.00in /  0mm 559.0 W/m2
10:01 69.3 °F /  20.7 °C 34.7 °F /  1.5 °C 30.26in /  1024.6hPa Calm   6.0mph /  9.7km/h 28% 0.00in /  0mm 571.0 W/m2
10:07 69.4 °F /  20.8 °C 34.0 °F /  1.1 °C 30.26in /  1024.6hPa North 0.9mph /  1.4km/h 8.0mph /  12.9km/h 27% 0.00in /  0mm 584.0 W/m2
10:13 69.6 °F /  20.9 °C 35.1 °F /  1.7 °C 30.26in /  1024.6hPa WNW 4.0mph /  6.4km/h 7.0mph /  11.3km/h 28% 0.00in /  0mm 596.0 W/m2
10:19 70.0 °F /  21.1 °C 35.4 °F /  1.9 °C 30.25in /  1024.3hPa NW 0.9mph /  1.4km/h 6.0mph /  9.7km/h 28% 0.00in /  0mm 608.0 W/m2
10:25 70.7 °F /  21.5 °C 35.1 °F /  1.7 °C 30.25in /  1024.3hPa NNE 2.0mph /  3.2km/h 6.0mph /  9.7km/h 27% 0.00in /  0mm 619.0 W/m2
10:31 70.9 °F /  21.6 °C 34.3 °F /  1.3 °C 30.25in /  1024.3hPa Calm   7.0mph /  11.3km/h 26% 0.00in /  0mm 631.0 W/m2
10:37 71.1 °F /  21.7 °C 35.4 °F /  1.9 °C 30.25in /  1024.3hPa North 4.0mph /  6.4km/h 4.0mph /  6.4km/h 27% 0.00in /  0mm 635.0 W/m2
10:43 71.4 °F /  21.9 °C 34.7 °F /  1.5 °C 30.25in /  1024.3hPa North 2.0mph /  3.2km/h 9.0mph /  14.5km/h 26% 0.00in /  0mm 643.0 W/m2
10:50 71.2 °F /  21.8 °C 34.5 °F /  1.4 °C 30.24in /  1023.9hPa WNW 0.9mph /  1.4km/h 6.0mph /  9.7km/h 26% 0.00in /  0mm 645.0 W/m2
10:56 71.4 °F /  21.9 °C 34.7 °F /  1.5 °C 30.24in /  1023.9hPa Calm   8.0mph /  12.9km/h 26% 0.00in /  0mm 652.0 W/m2
11:02 71.8 °F /  22.1 °C 35.1 °F /  1.7 °C 30.24in /  1023.9hPa NNW 2.9mph /  4.7km/h 9.0mph /  14.5km/h 26% 0.00in /  0mm 659.0 W/m2
11:08 71.8 °F /  22.1 °C 35.1 °F /  1.7 °C 30.24in /  1023.9hPa NNW 6.0mph /  9.7km/h 12.0mph /  19.3km/h 26% 0.00in /  0mm 661.0 W/m2
11:14 72.0 °F /  22.2 °C 35.2 °F /  1.8 °C 30.23in /  1023.6hPa Calm   9.0mph /  14.5km/h 26% 0.00in /  0mm 668.0 W/m2
11:20 72.1 °F /  22.3 °C 35.4 °F /  1.9 °C 30.23in /  1023.6hPa NNW 6.0mph /  9.7km/h 8.0mph /  12.9km/h 26% 0.00in /  0mm 670.0 W/m2
11:27 72.5 °F /  22.5 °C 35.6 °F /  2 °C 30.23in /  1023.6hPa NW 0.9mph /  1.4km/h 6.0mph /  9.7km/h 26% 0.00in /  0mm 671.0 W/m2
11:33 72.7 °F /  22.6 °C 34.9 °F /  1.6 °C 30.22in /  1023.2hPa North 6.0mph /  9.7km/h 10.0mph /  16.1km/h 25% 0.00in /  0mm 659.0 W/m2
11:39 72.7 °F /  22.6 °C 35.8 °F /  2.1 °C 30.22in /  1023.2hPa NW 2.0mph /  3.2km/h 11.0mph /  17.7km/h 26% 0.00in /  0mm 673.0 W/m2
11:45 72.9 °F /  22.7 °C 36.0 °F /  2.2 °C 30.22in /  1023.2hPa Calm   4.0mph /  6.4km/h 26% 0.00in /  0mm 670.0 W/m2
11:51 73.0 °F /  22.8 °C 35.1 °F /  1.7 °C 30.21in /  1022.9hPa NNW 4.9mph /  7.9km/h 10.0mph /  16.1km/h 25% 0.00in /  0mm 677.0 W/m2
11:57 72.9 °F /  22.7 °C 35.1 °F /  1.7 °C 30.21in /  1022.9hPa WNW 8.1mph /  13km/h 8.1mph /  13km/h 25% 0.00in /  0mm 684.0 W/m2
12:03 72.9 °F /  22.7 °C 35.1 °F /  1.7 °C 30.21in /  1022.9hPa NNW 2.9mph /  4.7km/h 8.0mph /  12.9km/h 25% 0.00in /  0mm 670.0 W/m2
12:09 73.0 °F /  22.8 °C 35.1 °F /  1.7 °C 30.20in /  1022.6hPa NNE 2.9mph /  4.7km/h 5.0mph /  8km/h 25% 0.00in /  0mm 645.0 W/m2
12:15 73.6 °F /  23.1 °C 35.6 °F /  2 °C 30.20in /  1022.6hPa Calm   7.0mph /  11.3km/h 25% 0.00in /  0mm 680.0 W/m2
12:21 73.9 °F /  23.3 °C 36.0 °F /  2.2 °C 30.19in /  1022.2hPa Calm   6.0mph /  9.7km/h 25% 0.00in /  0mm 668.0 W/m2
12:27 73.9 °F /  23.3 °C 36.0 °F /  2.2 °C 30.19in /  1022.2hPa West 2.0mph /  3.2km/h 7.0mph /  11.3km/h 25% 0.00in /  0mm 668.0 W/m2
12:33 74.1 °F /  23.4 °C 36.0 °F /  2.2 °C 30.19in /  1022.2hPa NW 2.0mph /  3.2km/h 5.0mph /  8km/h 25% 0.00in /  0mm 663.0 W/m2
12:40 74.5 °F /  23.6 °C 36.3 °F /  2.4 °C 30.19in /  1022.2hPa NNW 2.0mph /  3.2km/h 4.0mph /  6.4km/h 25% 0.00in /  0mm 638.0 W/m2
12:46 74.5 °F /  23.6 °C 35.2 °F /  1.8 °C 30.18in /  1021.9hPa Calm   3.0mph /  4.8km/h 24% 0.00in /  0mm 661.0 W/m2
12:52 74.3 °F /  23.5 °C 35.2 °F /  1.8 °C 30.18in /  1021.9hPa NNW 8.1mph /  13km/h 16.0mph /  25.7km/h 24% 0.00in /  0mm 663.0 W/m2
12:58 74.5 °F /  23.6 °C 35.2 °F /  1.8 °C 30.17in /  1021.6hPa NNW 8.9mph /  14.3km/h 10.0mph /  16.1km/h 24% 0.00in /  0mm 645.0 W/m2
13:04 74.7 °F /  23.7 °C 35.4 °F /  1.9 °C 30.17in /  1021.6hPa WNW 4.9mph /  7.9km/h 8.0mph /  12.9km/h 24% 0.00in /  0mm 640.0 W/m2
13:10 74.8 °F /  23.8 °C 35.6 °F /  2 °C 30.17in /  1021.6hPa North 4.9mph /  7.9km/h 9.0mph /  14.5km/h 24% 0.00in /  0mm 631.0 W/m2
13:16 74.8 °F /  23.8 °C 35.6 °F /  2 °C 30.17in /  1021.6hPa NNW 4.9mph /  7.9km/h 8.0mph /  12.9km/h 24% 0.00in /  0mm 612.0 W/m2
13:22 74.8 °F /  23.8 °C 35.6 °F /  2 °C 30.16in /  1021.2hPa WNW 0.9mph /  1.4km/h 8.0mph /  12.9km/h 24% 0.00in /  0mm 613.0 W/m2
13:28 74.8 °F /  23.8 °C 35.6 °F /  2 °C 30.16in /  1021.2hPa NNW 4.0mph /  6.4km/h 10.0mph /  16.1km/h 24% 0.00in /  0mm 596.0 W/m2
13:35 74.7 °F /  23.7 °C 35.4 °F /  1.9 °C 30.16in /  1021.2hPa SW 4.9mph /  7.9km/h 10.0mph /  16.1km/h 24% 0.00in /  0mm 594.0 W/m2
13:41 74.5 °F /  23.6 °C 35.2 °F /  1.8 °C 30.16in /  1021.2hPa WSW 2.9mph /  4.7km/h 8.0mph /  12.9km/h 24% 0.00in /  0mm 568.0 W/m2
13:47 74.7 °F /  23.7 °C 35.4 °F /  1.9 °C 30.16in /  1021.2hPa NW 2.0mph /  3.2km/h 7.0mph /  11.3km/h 24% 0.00in /  0mm 563.0 W/m2
13:53 74.8 °F /  23.8 °C 35.6 °F /  2 °C 30.15in /  1020.9hPa NW 2.0mph /  3.2km/h 4.0mph /  6.4km/h 24% 0.00in /  0mm 561.0 W/m2
13:59 74.8 °F /  23.8 °C 34.5 °F /  1.4 °C 30.15in /  1020.9hPa Calm   3.0mph /  4.8km/h 23% 0.00in /  0mm 547.0 W/m2
14:05 75.0 °F /  23.9 °C 35.8 °F /  2.1 °C 30.15in /  1020.9hPa WNW 2.0mph /  3.2km/h 11.0mph /  17.7km/h 24% 0.00in /  0mm 538.0 W/m2
14:11 75.0 °F /  23.9 °C 34.7 °F /  1.5 °C 30.15in /  1020.9hPa Calm   7.0mph /  11.3km/h 23% 0.00in /  0mm 517.0 W/m2
14:17 75.0 °F /  23.9 °C 34.7 °F /  1.5 °C 30.15in /  1020.9hPa North 2.9mph /  4.7km/h 6.0mph /  9.7km/h 23% 0.00in /  0mm 508.0 W/m2
14:23 75.2 °F /  24 °C 34.9 °F /  1.6 °C 30.14in /  1020.5hPa West 0.9mph /  1.4km/h 10.0mph /  16.1km/h 23% 0.00in /  0mm 497.0 W/m2
14:30 75.4 °F /  24.1 °C 35.1 °F /  1.7 °C 30.14in /  1020.5hPa Calm   4.0mph /  6.4km/h 23% 0.00in /  0mm 450.0 W/m2
14:36 75.4 °F /  24.1 °C 35.1 °F /  1.7 °C 30.14in /  1020.5hPa NNE 6.0mph /  9.7km/h 8.0mph /  12.9km/h 23% 0.00in /  0mm 459.0 W/m2
14:42 75.4 °F /  24.1 °C 34.0 °F /  1.1 °C 30.14in /  1020.5hPa SSW 2.0mph /  3.2km/h 7.0mph /  11.3km/h 22% 0.00in /  0mm 450.0 W/m2
14:48 75.4 °F /  24.1 °C 35.1 °F /  1.7 °C 30.14in /  1020.5hPa West 4.9mph /  7.9km/h 6.0mph /  9.7km/h 23% 0.00in /  0mm 429.0 W/m2
14:54 75.4 °F /  24.1 °C 35.1 °F /  1.7 °C 30.14in /  1020.5hPa NW 2.0mph /  3.2km/h 10.0mph /  16.1km/h 23% 0.00in /  0mm 404.0 W/m2
15:00 75.2 °F /  24 °C 34.9 °F /  1.6 °C 30.14in /  1020.5hPa Calm   2.0mph /  3.2km/h 23% 0.00in /  0mm 392.0 W/m2
15:06 75.4 °F /  24.1 °C 34.0 °F /  1.1 °C 30.14in /  1020.5hPa Calm   8.0mph /  12.9km/h 22% 0.00in /  0mm 374.0 W/m2
15:12 75.0 °F /  23.9 °C 34.7 °F /  1.5 °C 30.13in /  1020.2hPa NNW 2.9mph /  4.7km/h 7.0mph /  11.3km/h 23% 0.00in /  0mm 357.0 W/m2
15:19 74.8 °F /  23.8 °C 34.5 °F /  1.4 °C 30.14in /  1020.5hPa NNW 4.9mph /  7.9km/h 9.0mph /  14.5km/h 23% 0.00in /  0mm 341.0 W/m2
15:25 74.8 °F /  23.8 °C 34.5 °F /  1.4 °C 30.14in /  1020.5hPa NNW 10.1mph /  16.3km/h 10.1mph /  16.3km/h 23% 0.00in /  0mm 311.0 W/m2
15:31 74.7 °F /  23.7 °C 34.3 °F /  1.3 °C 30.14in /  1020.5hPa NNW 4.9mph /  7.9km/h 6.0mph /  9.7km/h 23% 0.00in /  0mm 264.0 W/m2
15:37 74.5 °F /  23.6 °C 34.3 °F /  1.3 °C 30.14in /  1020.5hPa NW 4.0mph /  6.4km/h 9.0mph /  14.5km/h 23% 0.00in /  0mm 54.0 W/m2
15:43 74.3 °F /  23.5 °C 34.2 °F /  1.2 °C 30.14in /  1020.5hPa Calm   7.0mph /  11.3km/h 23% 0.00in /  0mm 49.0 W/m2
15:49 73.9 °F /  23.3 °C 33.8 °F /  1 °C 30.14in /  1020.5hPa WNW 2.0mph /  3.2km/h 8.0mph /  12.9km/h 23% 0.00in /  0mm 46.0 W/m2
15:55 73.8 °F /  23.2 °C 33.6 °F /  0.9 °C 30.14in /  1020.5hPa NNW 4.9mph /  7.9km/h 6.0mph /  9.7km/h 23% 0.00in /  0mm 44.0 W/m2
16:01 73.6 °F /  23.1 °C 33.4 °F /  0.8 °C 30.14in /  1020.5hPa NW 0.9mph /  1.4km/h 9.0mph /  14.5km/h 23% 0.00in /  0mm 42.0 W/m2
16:07 73.0 °F /  22.8 °C 34.2 °F /  1.2 °C 30.14in /  1020.5hPa WNW 4.9mph /  7.9km/h 5.0mph /  8km/h 24% 0.00in /  0mm 39.0 W/m2
16:13 72.9 °F /  22.7 °C 34.0 °F /  1.1 °C 30.14in /  1020.5hPa WNW 2.0mph /  3.2km/h 5.0mph /  8km/h 24% 0.00in /  0mm 33.0 W/m2
16:19 72.7 °F /  22.6 °C 33.8 °F /  1 °C 30.14in /  1020.5hPa NE 2.0mph /  3.2km/h 9.0mph /  14.5km/h 24% 0.00in /  0mm 30.0 W/m2
16:25 72.3 °F /  22.4 °C 34.5 °F /  1.4 °C 30.14in /  1020.5hPa West 4.9mph /  7.9km/h 5.0mph /  8km/h 25% 0.00in /  0mm 28.0 W/m2
16:31 72.1 °F /  22.3 °C 34.3 °F /  1.3 °C 30.14in /  1020.5hPa WNW 2.9mph /  4.7km/h 6.0mph /  9.7km/h 25% 0.00in /  0mm 26.0 W/m2
16:38 72.0 °F /  22.2 °C 34.2 °F /  1.2 °C 30.14in /  1020.5hPa NNW 2.9mph /  4.7km/h 5.0mph /  8km/h 25% 0.00in /  0mm 25.0 W/m2
16:44 71.6 °F /  22 °C 34.0 °F /  1.1 °C 30.14in /  1020.5hPa Calm   9.0mph /  14.5km/h 25% 0.00in /  0mm 23.0 W/m2
16:49 71.2 °F /  21.8 °C 34.5 °F /  1.4 °C 30.14in /  1020.5hPa Calm   1.0mph /  1.6km/h 26% 0.00in /  0mm 21.0 W/m2
16:55 71.1 °F /  21.7 °C 34.5 °F /  1.4 °C 30.14in /  1020.5hPa NNW 0.9mph /  1.4km/h 6.0mph /  9.7km/h 26% 0.00in /  0mm 18.0 W/m2
17:02 70.5 °F /  21.4 °C 34.0 °F /  1.1 °C 30.14in /  1020.5hPa WNW 0.9mph /  1.4km/h 3.0mph /  4.8km/h 26% 0.00in /  0mm 14.0 W/m2
17:08 70.3 °F /  21.3 °C 33.8 °F /  1 °C 30.14in /  1020.5hPa West 0.9mph /  1.4km/h 2.0mph /  3.2km/h 26% 0.00in /  0mm 12.0 W/m2
17:14 70.0 °F /  21.1 °C 33.4 °F /  0.8 °C 30.14in /  1020.5hPa Calm   1.0mph /  1.6km/h 26% 0.00in /  0mm 9.0 W/m2
17:20 69.6 °F /  20.9 °C 34.2 °F /  1.2 °C 30.15in /  1020.9hPa Calm   1.0mph /  1.6km/h 27% 0.00in /  0mm 5.0 W/m2
17:26 69.3 °F /  20.7 °C 33.8 °F /  1 °C 30.14in /  1020.5hPa Calm     27% 0.00in /  0mm 0.0 W/m2
17:32 68.7 °F /  20.4 °C 34.3 °F /  1.3 °C 30.15in /  1020.9hPa Calm   2.0mph /  3.2km/h 28% 0.00in /  0mm 0.0 W/m2
17:38 68.4 °F /  20.2 °C 34.0 °F /  1.1 °C 30.15in /  1020.9hPa WSW 3.0mph /  4.8km/h 3.0mph /  4.8km/h 28% 0.00in /  0mm 0.0 W/m2
17:44 67.8 °F /  19.9 °C 34.3 °F /  1.3 °C 30.15in /  1020.9hPa Calm     29% 0.00in /  0mm 0.0 W/m2
17:50 67.5 °F /  19.7 °C 34.2 °F /  1.2 °C 30.16in /  1021.2hPa Calm   2.0mph /  3.2km/h 29% 0.00in /  0mm 0.0 W/m2
17:56 67.1 °F /  19.5 °C 33.8 °F /  1 °C 30.16in /  1021.2hPa Calm   1.0mph /  1.6km/h 29% 0.00in /  0mm 0.0 W/m2
18:02 66.7 °F /  19.3 °C 34.3 °F /  1.3 °C 30.16in /  1021.2hPa Calm     30% 0.00in /  0mm 0.0 W/m2
18:08 66.2 °F /  19 °C 33.8 °F /  1 °C 30.16in /  1021.2hPa Calm     30% 0.00in /  0mm 0.0 W/m2
18:14 65.7 °F /  18.7 °C 34.2 °F /  1.2 °C 30.16in /  1021.2hPa Calm     31% 0.00in /  0mm 0.0 W/m2
18:20 64.9 °F /  18.3 °C 34.3 °F /  1.3 °C 30.17in /  1021.6hPa Calm   1.0mph /  1.6km/h 32% 0.00in /  0mm 0.0 W/m2
18:26 64.6 °F /  18.1 °C 34.0 °F /  1.1 °C 30.17in /  1021.6hPa Calm     32% 0.00in /  0mm 0.0 W/m2
18:32 63.9 °F /  17.7 °C 34.2 °F /  1.2 °C 30.17in /  1021.6hPa Calm     33% 0.00in /  0mm 0.0 W/m2
18:38 63.3 °F /  17.4 °C 34.5 °F /  1.4 °C 30.17in /  1021.6hPa Calm     34% 0.00in /  0mm 0.0 W/m2
18:44 63.0 °F /  17.2 °C 34.2 °F /  1.2 °C 30.17in /  1021.6hPa Calm     34% 0.00in /  0mm 0.0 W/m2
18:50 62.2 °F /  16.8 °C 34.2 °F /  1.2 °C 30.18in /  1021.9hPa Calm     35% 0.00in /  0mm 0.0 W/m2
18:56 61.5 °F /  16.4 °C 33.6 °F /  0.9 °C 30.18in /  1021.9hPa Calm     35% 0.00in /  0mm 0.0 W/m2
19:02 61.0 °F /  16.1 °C 34.5 °F /  1.4 °C 30.18in /  1021.9hPa Calm     37% 0.00in /  0mm 0.0 W/m2
19:08 60.3 °F /  15.7 °C 33.8 °F /  1 °C 30.18in /  1021.9hPa Calm     37% 0.00in /  0mm 0.0 W/m2
19:14 59.5 °F /  15.3 °C 34.0 °F /  1.1 °C 30.18in /  1021.9hPa Calm     38% 0.00in /  0mm 0.0 W/m2
19:20 59.2 °F /  15.1 °C 33.6 °F /  0.9 °C 30.18in /  1021.9hPa Calm     38% 0.00in /  0mm 0.0 W/m2
19:26 58.5 °F /  14.7 °C 33.6 °F /  0.9 °C 30.18in /  1021.9hPa Calm     39% 0.00in /  0mm 0.0 W/m2
19:32 58.1 °F /  14.5 °C 33.3 °F /  0.7 °C 30.19in /  1022.2hPa Calm     39% 0.00in /  0mm 0.0 W/m2
19:38 57.6 °F /  14.2 °C 33.4 °F /  0.8 °C 30.19in /  1022.2hPa Calm     40% 0.00in /  0mm 0.0 W/m2
19:44 57.0 °F /  13.9 °C 33.6 °F /  0.9 °C 30.19in /  1022.2hPa Calm     41% 0.00in /  0mm 0.0 W/m2
19:50 56.7 °F /  13.7 °C 33.3 °F /  0.7 °C 30.19in /  1022.2hPa Calm     41% 0.00in /  0mm 0.0 W/m2
19:56 56.1 °F /  13.4 °C 33.3 °F /  0.7 °C 30.19in /  1022.2hPa Calm     42% 0.00in /  0mm 0.0 W/m2
20:02 55.9 °F /  13.3 °C 33.3 °F /  0.7 °C 30.19in /  1022.2hPa Calm     42% 0.00in /  0mm 0.0 W/m2
20:08 55.9 °F /  13.3 °C 33.3 °F /  0.7 °C 30.19in /  1022.2hPa Calm   1.0mph /  1.6km/h 42% 0.00in /  0mm 0.0 W/m2
20:12 55.9 °F /  13.3 °C 33.3 °F /  0.7 °C 30.19in /  1022.2hPa Calm   1.0mph /  1.6km/h 42% 0.00in /  0mm 0.0 W/m2
20:18 55.8 °F /  13.2 °C 33.1 °F /  0.6 °C 30.19in /  1022.2hPa Calm     42% 0.00in /  0mm 0.0 W/m2
20:25 55.8 °F /  13.2 °C 33.1 °F /  0.6 °C 30.19in /  1022.2hPa Calm     42% 0.00in /  0mm 0.0 W/m2
20:30 55.6 °F /  13.1 °C 32.9 °F /  0.5 °C 30.19in /  1022.2hPa Calm     42% 0.00in /  0mm 0.0 W/m2
20:36 55.2 °F /  12.9 °C 33.1 °F /  0.6 °C 30.19in /  1022.2hPa Calm     43% 0.00in /  0mm 0.0 W/m2
20:42 55.0 °F /  12.8 °C 32.9 °F /  0.5 °C 30.20in /  1022.6hPa Calm   1.0mph /  1.6km/h 43% 0.00in /  0mm 0.0 W/m2
20:48 55.0 °F /  12.8 °C 32.9 °F /  0.5 °C 30.20in /  1022.6hPa Calm   1.0mph /  1.6km/h 43% 0.00in /  0mm 0.0 W/m2
20:54 55.0 °F /  12.8 °C 32.9 °F /  0.5 °C 30.20in /  1022.6hPa Calm   2.0mph /  3.2km/h 43% 0.00in /  0mm 0.0 W/m2
21:00 54.9 °F /  12.7 °C 32.7 °F /  0.4 °C 30.20in /  1022.6hPa Calm   1.0mph /  1.6km/h 43% 0.00in /  0mm 0.0 W/m2
21:06 54.9 °F /  12.7 °C 32.7 °F /  0.4 °C 30.20in /  1022.6hPa Calm     43% 0.00in /  0mm 0.0 W/m2
21:12 54.7 °F /  12.6 °C 33.3 °F /  0.7 °C 30.20in /  1022.6hPa Calm     44% 0.00in /  0mm 0.0 W/m2
21:18 54.3 °F /  12.4 °C 32.9 °F /  0.5 °C 30.20in /  1022.6hPa Calm     44% 0.00in /  0mm 0.0 W/m2
21:25 54.1 °F /  12.3 °C 32.7 °F /  0.4 °C 30.20in /  1022.6hPa Calm     44% 0.00in /  0mm 0.0 W/m2
21:30 54.0 °F /  12.2 °C 33.1 °F /  0.6 °C 30.20in /  1022.6hPa Calm     45% 0.00in /  0mm 0.0 W/m2
21:36 53.8 °F /  12.1 °C 32.9 °F /  0.5 °C 30.20in /  1022.6hPa Calm     45% 0.00in /  0mm 0.0 W/m2
21:40 53.6 °F /  12 °C 33.3 °F /  0.7 °C 30.20in /  1022.6hPa Calm     46% 0.00in /  0mm 0.0 W/m2
21:47 53.4 °F /  11.9 °C 33.1 °F /  0.6 °C 30.20in /  1022.6hPa Calm     46% 0.00in /  0mm 0.0 W/m2
21:52 53.2 °F /  11.8 °C 33.1 °F /  0.6 °C 30.21in /  1022.9hPa Calm   1.0mph /  1.6km/h 46% 0.00in /  0mm 0.0 W/m2
21:59 53.2 °F /  11.8 °C 33.4 °F /  0.8 °C 30.20in /  1022.6hPa Calm     47% 0.00in /  0mm 0.0 W/m2
22:05 53.2 °F /  11.8 °C 33.1 °F /  0.6 °C 30.20in /  1022.6hPa Calm   1.0mph /  1.6km/h 46% 0.00in /  0mm 0.0 W/m2
22:11 53.4 °F /  11.9 °C 33.1 °F /  0.6 °C 30.20in /  1022.6hPa Calm     46% 0.00in /  0mm 0.0 W/m2
22:16 53.8 °F /  12.1 °C 33.4 °F /  0.8 °C 30.20in /  1022.6hPa Calm     46% 0.00in /  0mm 0.0 W/m2
22:23 53.6 °F /  12 °C 33.8 °F /  1 °C 30.20in /  1022.6hPa Calm     47% 0.00in /  0mm 0.0 W/m2
22:29 53.2 °F /  11.8 °C 33.1 °F /  0.6 °C 30.20in /  1022.6hPa Calm     46% 0.00in /  0mm 0.0 W/m2
22:35 53.1 °F /  11.7 °C 32.9 °F /  0.5 °C 30.19in /  1022.2hPa Calm     46% 0.00in /  0mm 0.0 W/m2
22:41 52.9 °F /  11.6 °C 33.3 °F /  0.7 °C 30.20in /  1022.6hPa Calm     47% 0.00in /  0mm 0.0 W/m2
22:47 52.5 °F /  11.4 °C 32.9 °F /  0.5 °C 30.20in /  1022.6hPa Calm     47% 0.00in /  0mm 0.0 W/m2
22:53 52.3 °F /  11.3 °C 32.7 °F /  0.4 °C 30.20in /  1022.6hPa Calm     47% 0.00in /  0mm 0.0 W/m2
22:59 52.2 °F /  11.2 °C 33.1 °F /  0.6 °C 30.20in /  1022.6hPa Calm   1.0mph /  1.6km/h 48% 0.00in /  0mm 0.0 W/m2
23:05 51.8 °F /  11 °C 32.7 °F /  0.4 °C 30.19in /  1022.2hPa Calm     48% 0.00in /  0mm 0.0 W/m2
23:11 51.6 °F /  10.9 °C 33.1 °F /  0.6 °C 30.19in /  1022.2hPa Calm     49% 0.00in /  0mm 0.0 W/m2
23:17 51.4 °F /  10.8 °C 32.9 °F /  0.5 °C 30.19in /  1022.2hPa Calm     49% 0.00in /  0mm 0.0 W/m2
23:23 51.3 °F /  10.7 °C 33.3 °F /  0.7 °C 30.19in /  1022.2hPa Calm     50% 0.00in /  0mm 0.0 W/m2
23:29 51.1 °F /  10.6 °C 33.1 °F /  0.6 °C 30.19in /  1022.2hPa Calm     50% 0.00in /  0mm 0.0 W/m2
23:35 50.9 °F /  10.5 °C 32.9 °F /  0.5 °C 30.19in /  1022.2hPa Calm     50% 0.00in /  0mm 0.0 W/m2
23:41 50.7 °F /  10.4 °C 33.3 °F /  0.7 °C 30.19in /  1022.2hPa Calm     51% 0.00in /  0mm 0.0 W/m2
23:48 50.4 °F /  10.2 °C 32.4 °F /  0.2 °C 30.19in /  1022.2hPa Calm     50% 0.00in /  0mm 0.0 W/m2
23:54 50.2 °F /  10.1 °C 32.2 °F /  0.1 °C 30.19in /  1022.2hPa Calm   1.0mph /  1.6km/h 50% 0.00in /  0mm 0.0 W/m2
Olympia, Windhoek, Namibia
Compliments of Weather Underground - 3 mb